createdAt,value
2023-06-29T00:02:00.731Z,97291.75
2023-06-29T00:04:27.662Z,97304.38
2023-06-29T00:06:55.893Z,97302.38
2023-06-29T00:09:23.674Z,97290.63
2023-06-29T00:11:50.761Z,97280.00
2023-06-29T00:14:17.985Z,97266.06
2023-06-29T00:16:45.531Z,97262.41
2023-06-29T00:19:16.101Z,97278.84
2023-06-29T00:21:43.229Z,97291.09
2023-06-29T00:24:12.697Z,97294.44
2023-06-29T00:26:39.963Z,97271.38
2023-06-29T00:29:06.912Z,97282.31
2023-06-29T00:31:34.298Z,97251.81
2023-06-29T00:34:01.232Z,97269.06
2023-06-29T00:36:28.027Z,97265.78
2023-06-29T00:38:55.032Z,97258.94
2023-06-29T00:41:22.142Z,97253.16
2023-06-29T00:43:49.252Z,97267.56
2023-06-29T00:46:19.220Z,97274.53
2023-06-29T00:48:46.411Z,97257.16
2023-06-29T00:51:14.464Z,97251.00
2023-06-29T00:53:41.973Z,97263.75
2023-06-29T00:56:08.973Z,97303.53
2023-06-29T00:58:36.565Z,97292.59
2023-06-29T01:01:03.388Z,97273.56
2023-06-29T01:03:32.260Z,97260.13
2023-06-29T01:06:02.654Z,97270.72
2023-06-29T01:08:32.786Z,97272.72
2023-06-29T01:11:00.431Z,97273.88
2023-06-29T01:13:28.727Z,97270.41
2023-06-29T01:15:55.989Z,97268.75
2023-06-29T01:18:25.656Z,97256.81
2023-06-29T01:20:53.393Z,97253.16
2023-06-29T01:23:38.243Z,97249.50
2023-06-29T01:26:06.704Z,97253.81
2023-06-29T01:28:33.915Z,97248.88
2023-06-29T01:31:03.521Z,97266.41
2023-06-29T01:33:31.435Z,97260.78
2023-06-29T01:36:10.843Z,97248.88
2023-06-29T01:38:57.852Z,97246.88
2023-06-29T01:41:25.709Z,97251.84
2023-06-29T01:43:52.932Z,97246.56
2023-06-29T01:46:21.392Z,97231.97
2023-06-29T01:48:51.345Z,97233.94
2023-06-29T01:51:18.501Z,97229.66
2023-06-29T01:53:45.385Z,97226.34
2023-06-29T01:56:12.415Z,97232.28
2023-06-29T01:58:39.119Z,97225.66
2023-06-29T02:01:06.070Z,97224.34
2023-06-29T02:03:32.880Z,97215.09
2023-06-29T02:05:59.835Z,97211.44
2023-06-29T02:08:26.647Z,97222.34
2023-06-29T02:10:53.661Z,97223.03
2023-06-29T02:13:20.692Z,97232.63
2023-06-29T02:15:47.722Z,97226.66
2023-06-29T02:18:14.708Z,97226.00
2023-06-29T02:20:41.842Z,97232.47
2023-06-29T02:23:08.518Z,97227.19
2023-06-29T02:25:35.083Z,97220.06
2023-06-29T02:28:01.673Z,97212.09
2023-06-29T02:30:28.693Z,97225.00
2023-06-29T02:32:55.577Z,97225.34
2023-06-29T02:35:22.237Z,97221.34
2023-06-29T02:37:49.238Z,97231.28
2023-06-29T02:40:16.651Z,97232.28
2023-06-29T02:42:43.346Z,97231.28
2023-06-29T02:45:10.641Z,97226.66
2023-06-29T02:47:37.483Z,97222.66
2023-06-29T02:50:04.477Z,97234.13
2023-06-29T02:52:31.129Z,97239.56
2023-06-29T02:54:57.807Z,97240.25
2023-06-29T02:57:24.913Z,97241.84
2023-06-29T02:59:51.658Z,97241.81
2023-06-29T03:02:18.379Z,97238.84
2023-06-29T03:04:45.213Z,97253.06
2023-06-29T03:07:12.425Z,97249.63
2023-06-29T03:09:39.147Z,97256.72
2023-06-29T03:12:06.100Z,97251.91
2023-06-29T03:14:32.808Z,97244.13
2023-06-29T03:17:00.004Z,97256.03
2023-06-29T03:19:28.899Z,97241.28
2023-06-29T03:21:56.224Z,97235.53
2023-06-29T03:24:22.859Z,97235.19
2023-06-29T03:26:49.746Z,97236.50
2023-06-29T03:29:16.497Z,97243.31
2023-06-29T03:31:43.086Z,97254.72
2023-06-29T03:34:09.758Z,97261.03
2023-06-29T03:36:36.371Z,97260.53
2023-06-29T03:39:03.369Z,97253.63
2023-06-29T03:41:30.407Z,97261.25
2023-06-29T03:43:57.126Z,97259.97
2023-06-29T03:46:25.676Z,97254.16
2023-06-29T03:48:52.365Z,97256.31
2023-06-29T03:51:18.948Z,97256.31
2023-06-29T03:53:45.888Z,97264.78
2023-06-29T03:56:12.726Z,97272.69
2023-06-29T03:58:39.466Z,97269.19
2023-06-29T04:01:07.047Z,97268.31
2023-06-29T04:03:35.129Z,97269.03
2023-06-29T04:06:02.217Z,97260.50
2023-06-29T04:08:29.301Z,97263.03
2023-06-29T04:10:56.575Z,97259.56
2023-06-29T04:13:23.343Z,97264.81
2023-06-29T04:15:50.004Z,97258.75
2023-06-29T04:18:17.672Z,97265.47
2023-06-29T04:20:44.657Z,97267.41
2023-06-29T04:23:15.708Z,97269.91
2023-06-29T04:25:45.948Z,97266.06
2023-06-29T04:28:14.130Z,97269.84
2023-06-29T04:30:42.130Z,97259.84
2023-06-29T04:33:12.201Z,97260.63
2023-06-29T04:35:46.075Z,97263.19
2023-06-29T04:38:14.593Z,97271.22
2023-06-29T04:40:41.819Z,97264.88
2023-06-29T04:43:11.405Z,97266.03
2023-06-29T04:45:38.066Z,97271.59
2023-06-29T04:48:05.266Z,97267.06
2023-06-29T04:50:36.888Z,97274.84
2023-06-29T04:53:10.711Z,97283.47
2023-06-29T04:55:40.990Z,97278.59
2023-06-29T04:58:07.833Z,97286.16
2023-06-29T05:00:34.815Z,97293.47
2023-06-29T05:03:01.982Z,97295.97
2023-06-29T05:05:29.257Z,97292.13
2023-06-29T05:07:55.812Z,97297.72
2023-06-29T05:10:22.742Z,97293.91
2023-06-29T05:12:49.370Z,97292.97
2023-06-29T05:15:16.884Z,97288.91
2023-06-29T05:17:44.546Z,97292.41
2023-06-29T05:20:11.724Z,97291.38
2023-06-29T05:22:38.445Z,97296.59
2023-06-29T05:25:05.355Z,97290.50
2023-06-29T05:27:32.477Z,97291.38
2023-06-29T05:29:59.475Z,97297.47
2023-06-29T05:32:26.096Z,97287.56
2023-06-29T05:34:52.747Z,97283.50
2023-06-29T05:37:19.455Z,97281.22
2023-06-29T05:39:46.310Z,97281.25
2023-06-29T05:42:13.278Z,97289.94
2023-06-29T05:44:39.980Z,97282.94
2023-06-29T05:47:08.516Z,97290.16
2023-06-29T05:49:36.858Z,97298.25
2023-06-29T05:52:04.081Z,97299.47
2023-06-29T05:54:31.037Z,97293.94
2023-06-29T05:56:58.451Z,97291.69
2023-06-29T05:59:25.230Z,97299.94
2023-06-29T06:01:52.503Z,97292.94
2023-06-29T06:04:19.122Z,97302.59
2023-06-29T06:06:48.013Z,97292.91
2023-06-29T06:09:14.813Z,97299.84
2023-06-29T06:11:41.812Z,97299.78
2023-06-29T06:14:08.534Z,97293.56
2023-06-29T06:16:38.378Z,97284.97
2023-06-29T06:19:05.038Z,97292.22
2023-06-29T06:21:31.778Z,97290.81
2023-06-29T06:23:58.429Z,97298.03
2023-06-29T06:26:25.864Z,97283.34
2023-06-29T06:28:53.085Z,97304.97
2023-06-29T06:31:32.846Z,97291.97
2023-06-29T06:34:00.546Z,97285.47
2023-06-29T06:36:28.284Z,97282.66
2023-06-29T06:38:54.957Z,97281.88
2023-06-29T06:41:21.678Z,97283.97
2023-06-29T06:43:48.252Z,97285.75
2023-06-29T06:46:15.302Z,97283.41
2023-06-29T06:48:42.250Z,97271.97
2023-06-29T06:51:08.887Z,97270.50
2023-06-29T06:53:35.501Z,97271.47
2023-06-29T06:56:02.235Z,97272.75
2023-06-29T06:58:28.793Z,97266.81
2023-06-29T07:00:55.492Z,97272.19
2023-06-29T07:03:22.244Z,97269.06
2023-06-29T07:05:49.407Z,97265.00
2023-06-29T07:08:19.500Z,97266.38
2023-06-29T07:10:46.426Z,97269.50
2023-06-29T07:13:13.610Z,97271.06
2023-06-29T07:15:40.460Z,97276.00
2023-06-29T07:18:07.274Z,97274.28
2023-06-29T07:25:33.541Z,97272.50
2023-06-29T07:28:00.935Z,97267.84
2023-06-29T07:30:27.762Z,97257.25
2023-06-29T07:32:54.561Z,97266.59
2023-06-29T07:35:21.274Z,97257.28
2023-06-29T07:37:48.157Z,97256.22
2023-06-29T07:40:15.661Z,97263.88
2023-06-29T07:42:42.508Z,97261.75
2023-06-29T07:45:09.433Z,97264.06
2023-06-29T07:47:36.634Z,97273.16
2023-06-29T07:50:03.552Z,97257.19
2023-06-29T07:52:32.286Z,97263.75
2023-06-29T07:54:59.448Z,97252.91
2023-06-29T07:59:55.586Z,97265.66
2023-06-29T08:02:22.338Z,97255.13
2023-06-29T08:07:18.875Z,97254.63
2023-06-29T08:09:45.741Z,97254.53
2023-06-29T08:12:12.434Z,97255.69
2023-06-29T08:14:39.129Z,97263.28
2023-06-29T08:17:06.020Z,97257.31
2023-06-29T08:19:32.826Z,97253.47
2023-06-29T08:21:59.745Z,97247.88
2023-06-29T08:24:26.331Z,97257.69
2023-06-29T08:26:53.291Z,97244.47
2023-06-29T08:29:21.687Z,97253.97
2023-06-29T08:31:49.165Z,97242.56
2023-06-29T08:34:15.907Z,97243.97
2023-06-29T08:36:43.032Z,97249.13
2023-06-29T08:39:10.236Z,97249.75
2023-06-29T08:41:37.010Z,97249.16
2023-06-29T08:44:05.929Z,97248.81
2023-06-29T08:46:33.010Z,97255.03
2023-06-29T08:49:01.640Z,97250.09
2023-06-29T08:51:28.859Z,97244.41
2023-06-29T08:53:55.819Z,97236.09
2023-06-29T08:56:24.908Z,97242.59
2023-06-29T08:58:52.530Z,97242.16
2023-06-29T09:01:20.070Z,97238.84
2023-06-29T09:03:47.566Z,97231.31
2023-06-29T09:06:16.085Z,97244.47
2023-06-29T09:08:43.003Z,97248.25
2023-06-29T09:11:09.643Z,97238.44
2023-06-29T09:13:36.349Z,97241.16
2023-06-29T09:16:03.503Z,97236.03
2023-06-29T09:18:31.205Z,97232.03
2023-06-29T09:20:57.877Z,97225.72
2023-06-29T09:23:27.108Z,97233.00
2023-06-29T09:25:55.297Z,97232.41
2023-06-29T09:28:22.132Z,97228.97
2023-06-29T09:30:51.069Z,97226.84
2023-06-29T09:33:18.250Z,97221.59
2023-06-29T09:35:46.255Z,97220.41
2023-06-29T09:38:14.310Z,97216.84
2023-06-29T09:40:50.668Z,97219.94
2023-06-29T09:43:18.336Z,97222.41
2023-06-29T09:45:47.997Z,97215.88
2023-06-29T09:50:52.867Z,97212.63
2023-06-29T09:53:28.788Z,97221.28
2023-06-29T09:55:56.947Z,97222.41
2023-06-29T09:58:24.108Z,97225.84
2023-06-29T10:00:51.877Z,97209.94
2023-06-29T10:03:18.886Z,97215.66
2023-06-29T10:05:45.621Z,97210.91
2023-06-29T10:08:15.820Z,97218.56
2023-06-29T10:10:43.501Z,97206.16
2023-06-29T10:13:10.908Z,97204.84
2023-06-29T10:15:38.364Z,97198.00
2023-06-29T10:18:16.432Z,97201.31
2023-06-29T10:20:45.318Z,97201.56
2023-06-29T10:23:13.943Z,97190.19
2023-06-29T10:25:42.922Z,97197.81
2023-06-29T10:28:10.522Z,97190.34
2023-06-29T10:30:48.108Z,97193.41
2023-06-29T10:33:21.540Z,97188.28
2023-06-29T10:35:59.383Z,97188.81
2023-06-29T10:38:33.866Z,97190.19
2023-06-29T10:41:00.783Z,97186.06
2023-06-29T10:43:28.322Z,97177.31
2023-06-29T10:45:55.037Z,97169.78
2023-06-29T10:48:38.259Z,97179.00
2023-06-29T10:51:10.009Z,97190.44
2023-06-29T10:53:36.928Z,97180.75
2023-06-29T10:56:03.967Z,97182.75
2023-06-29T10:58:37.238Z,97169.41
2023-06-29T11:01:03.988Z,97181.50
2023-06-29T11:03:31.262Z,97174.88
2023-06-29T11:05:59.671Z,97176.81
2023-06-29T11:08:26.375Z,97180.78
2023-06-29T11:10:53.764Z,97173.94
2023-06-29T11:13:21.329Z,97175.69
2023-06-29T11:15:55.830Z,97169.25
2023-06-29T11:18:22.906Z,97179.50
2023-06-29T11:20:50.030Z,97170.00
2023-06-29T11:23:18.311Z,97176.03
2023-06-29T11:25:54.077Z,97177.81
2023-06-29T11:28:20.690Z,97169.13
2023-06-29T11:30:50.792Z,97178.84
2023-06-29T11:33:33.503Z,97178.03
2023-06-29T11:36:02.356Z,97188.50
2023-06-29T11:38:29.344Z,97183.44
2023-06-29T11:41:06.485Z,97186.50
2023-06-29T11:43:33.898Z,97180.59
2023-06-29T11:46:01.582Z,97177.31
2023-06-29T11:48:31.267Z,97172.72
2023-06-29T11:51:01.556Z,97168.44
2023-06-29T11:53:32.067Z,97168.38
2023-06-29T11:55:58.911Z,97175.44
2023-06-29T11:58:32.344Z,97178.94
2023-06-29T12:00:59.295Z,97177.00
2023-06-29T12:03:27.711Z,97172.44
2023-06-29T12:05:54.903Z,97167.81
2023-06-29T12:08:25.202Z,97163.16
2023-06-29T12:10:52.156Z,97163.97
2023-06-29T12:13:19.034Z,97157.53
2023-06-29T12:18:17.060Z,97163.44
2023-06-29T12:20:45.661Z,97158.53
2023-06-29T12:23:13.597Z,97160.25
2023-06-29T12:25:45.023Z,97157.75
2023-06-29T12:28:12.339Z,97165.53
2023-06-29T12:30:39.085Z,97154.75
2023-06-29T12:33:05.795Z,97157.00
2023-06-29T12:35:32.703Z,97147.16
2023-06-29T12:37:59.553Z,97134.16
2023-06-29T12:40:26.462Z,97138.28
2023-06-29T12:42:53.393Z,97136.53
2023-06-29T12:45:20.007Z,97143.94
2023-06-29T12:47:47.525Z,97135.28
2023-06-29T12:50:14.731Z,97138.66
2023-06-29T12:52:41.914Z,97129.59
2023-06-29T12:55:46.570Z,97136.63
2023-06-29T12:58:13.455Z,97132.41
2023-06-29T13:00:40.097Z,97138.25
2023-06-29T13:03:12.873Z,97131.63
2023-06-29T13:05:39.814Z,97133.16
2023-06-29T13:08:06.943Z,97118.53
2023-06-29T13:10:34.719Z,97124.81
2023-06-29T13:13:01.999Z,97116.88
2023-06-29T13:15:29.014Z,97124.81
2023-06-29T13:17:56.266Z,97110.56
2023-06-29T13:20:23.213Z,97117.13
2023-06-29T13:22:49.913Z,97125.56
2023-06-29T13:25:16.553Z,97125.25
2023-06-29T13:27:46.852Z,97114.72
2023-06-29T13:30:16.049Z,97109.91
2023-06-29T13:32:43.043Z,97110.59
2023-06-29T13:35:10.050Z,97096.97
2023-06-29T13:37:36.853Z,97112.81
2023-06-29T13:40:04.433Z,97107.50
2023-06-29T13:42:31.050Z,97104.06
2023-06-29T13:44:58.051Z,97099.97
2023-06-29T13:47:24.947Z,97097.72
2023-06-29T13:49:52.657Z,97097.53
2023-06-29T13:52:19.449Z,97103.91
2023-06-29T13:54:46.213Z,97098.97
2023-06-29T13:57:13.197Z,97095.50
2023-06-29T13:59:39.859Z,97100.59
2023-06-29T14:02:07.335Z,97097.44
2023-06-29T14:04:34.325Z,97104.84
2023-06-29T14:07:01.416Z,97109.28
2023-06-29T14:09:28.901Z,97105.69
2023-06-29T14:11:55.765Z,97104.97
2023-06-29T14:14:22.435Z,97098.50
2023-06-29T14:16:49.050Z,97102.28
2023-06-29T14:19:15.732Z,97099.56
2023-06-29T14:21:44.925Z,97091.94
2023-06-29T14:24:11.627Z,97100.44
2023-06-29T14:26:38.163Z,97092.16
2023-06-29T14:29:04.941Z,97097.53
2023-06-29T14:31:31.815Z,97091.66
2023-06-29T14:34:00.401Z,97094.91
2023-06-29T14:36:27.450Z,97095.09
2023-06-29T14:38:54.480Z,97095.16
2023-06-29T14:41:21.415Z,97096.66
2023-06-29T14:43:48.566Z,97088.69
2023-06-29T14:46:15.339Z,97091.91
2023-06-29T14:48:42.417Z,97100.34
2023-06-29T14:51:09.694Z,97084.50
2023-06-29T14:53:36.672Z,97092.25
2023-06-29T14:56:11.069Z,97088.19
2023-06-29T14:58:38.225Z,97074.84
2023-06-29T15:01:05.213Z,97082.41
2023-06-29T15:03:32.300Z,97080.44
2023-06-29T15:05:59.718Z,97075.50
2023-06-29T15:08:28.318Z,97074.94
2023-06-29T15:10:55.107Z,97087.38
2023-06-29T15:13:21.783Z,97075.44
2023-06-29T15:15:49.036Z,97076.28
2023-06-29T15:18:16.083Z,97074.53
2023-06-29T15:20:42.877Z,97070.19
2023-06-29T15:23:09.702Z,97075.72
2023-06-29T15:25:39.156Z,97077.34
2023-06-29T15:28:06.761Z,97073.44
2023-06-29T15:30:41.122Z,97068.44
2023-06-29T15:33:19.711Z,97070.81
2023-06-29T15:35:46.850Z,97071.16
2023-06-29T15:38:14.097Z,97070.66
2023-06-29T15:40:41.883Z,97076.69
2023-06-29T15:43:08.709Z,97082.16
2023-06-29T15:45:35.864Z,97074.03
2023-06-29T15:48:03.003Z,97075.69
2023-06-29T15:50:30.306Z,97075.94
2023-06-29T15:52:56.961Z,97069.72
2023-06-29T15:55:23.721Z,97077.81
2023-06-29T15:57:50.718Z,97079.34
2023-06-29T16:00:17.920Z,97083.59
2023-06-29T16:02:44.612Z,97085.72
2023-06-29T16:05:11.455Z,97078.00
2023-06-29T16:07:39.202Z,97082.00
2023-06-29T16:10:06.084Z,97088.72
2023-06-29T16:12:33.011Z,97094.47
2023-06-29T16:15:00.774Z,97080.22
2023-06-29T16:17:28.735Z,97086.56
2023-06-29T16:19:55.996Z,97089.09
2023-06-29T16:22:22.841Z,97082.09
2023-06-29T16:24:49.575Z,97088.50
2023-06-29T16:27:16.261Z,97096.56
2023-06-29T16:29:43.469Z,97092.34
2023-06-29T16:32:10.506Z,97092.91
2023-06-29T16:34:37.364Z,97093.28
2023-06-29T16:37:04.119Z,97091.72
2023-06-29T16:39:30.990Z,97096.09
2023-06-29T16:41:57.756Z,97084.78
2023-06-29T16:44:24.390Z,97094.59
2023-06-29T16:46:53.325Z,97095.16
2023-06-29T16:49:20.207Z,97092.31
2023-06-29T16:51:46.996Z,97093.28
2023-06-29T16:54:13.555Z,97102.28
2023-06-29T16:56:41.029Z,97098.84
2023-06-29T16:59:07.591Z,97089.84
2023-06-29T17:01:34.228Z,97096.06
2023-06-29T17:04:00.892Z,97092.03
2023-06-29T17:06:27.824Z,97093.75
2023-06-29T17:08:54.614Z,97099.03
2023-06-29T17:11:21.353Z,97090.44
2023-06-29T17:13:48.923Z,97100.84
2023-06-29T17:16:15.681Z,97102.19
2023-06-29T17:18:42.452Z,97095.84
2023-06-29T17:21:09.072Z,97101.28
2023-06-29T17:23:36.041Z,97096.59
2023-06-29T17:26:04.262Z,97096.44
2023-06-29T17:28:30.889Z,97106.19
2023-06-29T17:30:58.152Z,97107.91
2023-06-29T17:33:25.056Z,97104.22
2023-06-29T17:35:52.155Z,97106.53
2023-06-29T17:38:19.371Z,97111.06
2023-06-29T17:40:46.453Z,97109.03
2023-06-29T17:43:13.117Z,97112.13
2023-06-29T17:45:40.105Z,97115.44
2023-06-29T17:48:09.956Z,97115.84
2023-06-29T17:50:37.344Z,97115.44
2023-06-29T17:53:04.244Z,97112.09
2023-06-29T17:55:30.854Z,97127.31
2023-06-29T17:57:58.039Z,97117.63
2023-06-29T18:00:24.809Z,97125.19
2023-06-29T18:02:51.573Z,97130.09
2023-06-29T18:05:18.456Z,97127.00
2023-06-29T18:07:45.410Z,97129.59
2023-06-29T18:10:12.119Z,97138.16
2023-06-29T18:12:39.262Z,97136.69
2023-06-29T18:15:06.761Z,97138.25
2023-06-29T18:17:34.033Z,97145.78
2023-06-29T18:20:01.318Z,97143.41
2023-06-29T18:22:28.261Z,97149.28
2023-06-29T18:24:55.263Z,97161.13
2023-06-29T18:27:23.436Z,97157.56
2023-06-29T18:29:50.464Z,97158.75
2023-06-29T18:32:18.343Z,97158.41
2023-06-29T18:34:47.027Z,97162.00
2023-06-29T18:37:13.899Z,97163.16
2023-06-29T18:39:40.825Z,97166.56
2023-06-29T18:42:07.937Z,97169.00
2023-06-29T18:44:34.778Z,97175.00
2023-06-29T18:47:06.157Z,97176.31
2023-06-29T18:49:45.906Z,97181.13
2023-06-29T18:52:18.205Z,97181.13
2023-06-29T18:54:45.530Z,97184.66
2023-06-29T18:57:12.446Z,97191.06
2023-06-29T18:59:40.095Z,97192.78
2023-06-29T19:02:09.744Z,97199.59
2023-06-29T19:04:37.209Z,97200.31
2023-06-29T19:07:04.082Z,97198.41
2023-06-29T19:09:31.485Z,97201.34
2023-06-29T19:11:58.456Z,97201.91
2023-06-29T19:14:25.307Z,97199.59
2023-06-29T19:16:52.251Z,97202.88
2023-06-29T19:19:19.316Z,97202.59
2023-06-29T19:21:49.183Z,97204.44
2023-06-29T19:24:16.886Z,97208.00
2023-06-29T19:26:43.932Z,97205.22
2023-06-29T19:29:14.430Z,97203.09
2023-06-29T19:31:42.932Z,97209.31
2023-06-29T19:34:11.870Z,97209.38
2023-06-29T19:36:39.167Z,97206.56
2023-06-29T19:39:05.878Z,97208.47
2023-06-29T19:41:32.636Z,97223.13
2023-06-29T19:44:00.818Z,97210.38
2023-06-29T19:46:27.697Z,97225.81
2023-06-29T19:48:54.654Z,97222.84
2023-06-29T19:51:21.716Z,97222.38
2023-06-29T19:53:48.784Z,97219.78
2023-06-29T19:56:15.997Z,97229.78
2023-06-29T19:58:43.167Z,97232.97
2023-06-29T20:01:10.121Z,97232.84
2023-06-29T20:03:37.203Z,97230.22
2023-06-29T20:06:04.578Z,97237.72
2023-06-29T20:08:31.679Z,97234.91
2023-06-29T20:10:58.943Z,97231.28
2023-06-29T20:13:26.403Z,97235.47
2023-06-29T20:15:53.713Z,97242.44
2023-06-29T20:18:20.906Z,97246.44
2023-06-29T20:20:47.754Z,97242.09
2023-06-29T20:23:14.667Z,97250.06
2023-06-29T20:25:41.343Z,97250.44
2023-06-29T20:28:08.092Z,97249.28
2023-06-29T20:30:34.960Z,97256.75
2023-06-29T20:33:02.134Z,97254.44
2023-06-29T20:35:29.496Z,97250.94
2023-06-29T20:37:56.403Z,97253.63
2023-06-29T20:40:24.527Z,97252.81
2023-06-29T20:42:51.460Z,97254.47
2023-06-29T20:45:18.295Z,97257.44
2023-06-29T20:47:45.537Z,97258.78
2023-06-29T20:50:12.620Z,97260.75
2023-06-29T20:52:39.653Z,97254.31
2023-06-29T20:55:06.770Z,97257.63
2023-06-29T20:57:38.410Z,97260.78
2023-06-29T21:00:11.362Z,97254.16
2023-06-29T21:02:38.660Z,97257.97
2023-06-29T21:05:06.044Z,97252.50
2023-06-29T21:07:33.297Z,97254.19
2023-06-29T21:10:00.133Z,97248.22
2023-06-29T21:12:27.444Z,97250.38
2023-06-29T21:14:54.598Z,97257.47
2023-06-29T21:17:21.644Z,97261.09
2023-06-29T21:19:49.063Z,97261.47
2023-06-29T21:22:17.981Z,97264.09
2023-06-29T21:24:45.310Z,97259.97
2023-06-29T21:27:19.022Z,97256.31
2023-06-29T21:29:47.416Z,97260.13
2023-06-29T21:32:15.302Z,97259.47
2023-06-29T21:34:42.524Z,97253.16
2023-06-29T21:37:09.664Z,97255.47
2023-06-29T21:39:36.278Z,97251.81
2023-06-29T21:42:03.032Z,97254.78
2023-06-29T21:44:29.718Z,97251.44
2023-06-29T21:46:56.638Z,97249.28
2023-06-29T21:49:23.583Z,97245.66
2023-06-29T21:51:50.406Z,97250.13
2023-06-29T21:54:17.407Z,97240.84
2023-06-29T21:56:45.249Z,97245.16
2023-06-29T21:59:11.922Z,97250.44
2023-06-29T22:01:38.683Z,97248.47
2023-06-29T22:04:05.521Z,97244.31
2023-06-29T22:06:32.485Z,97254.09
2023-06-29T22:08:59.143Z,97255.72
2023-06-29T22:11:28.170Z,97249.41
2023-06-29T22:13:55.214Z,97248.09
2023-06-29T22:16:25.034Z,97249.75
2023-06-29T22:18:52.329Z,97249.56
2023-06-29T22:21:22.438Z,97254.03
2023-06-29T22:23:53.680Z,97249.53
2023-06-29T22:26:20.990Z,97246.91
2023-06-29T22:28:47.900Z,97253.00
2023-06-29T22:31:18.694Z,97249.34
2023-06-29T22:33:46.425Z,97264.22
2023-06-29T22:36:14.909Z,97249.97
2023-06-29T22:38:42.241Z,97254.75
2023-06-29T22:41:09.631Z,97255.41
2023-06-29T22:43:36.770Z,97257.25
2023-06-29T22:46:03.759Z,97258.88
2023-06-29T22:48:30.882Z,97252.59
2023-06-29T22:50:57.986Z,97254.06
2023-06-29T22:53:25.152Z,97256.22
2023-06-29T22:55:51.979Z,97256.53
2023-06-29T22:58:25.670Z,97261.00
2023-06-29T23:00:53.501Z,97258.84
2023-06-29T23:03:20.820Z,97255.50
2023-06-29T23:05:48.245Z,97255.19
2023-06-29T23:08:16.655Z,97255.50
2023-06-29T23:10:43.557Z,97242.44
2023-06-29T23:13:15.606Z,97257.78
2023-06-29T23:15:44.704Z,97254.78
2023-06-29T23:18:13.250Z,97246.72
2023-06-29T23:20:45.208Z,97256.78
2023-06-29T23:23:14.400Z,97248.84
2023-06-29T23:25:42.262Z,97259.06
2023-06-29T23:28:09.111Z,97255.75
2023-06-29T23:30:36.848Z,97253.41
2023-06-29T23:33:03.928Z,97255.44
2023-06-29T23:35:30.773Z,97260.06
2023-06-29T23:37:57.637Z,97261.97
2023-06-29T23:40:27.442Z,97257.97
2023-06-29T23:42:54.926Z,97263.22
2023-06-29T23:45:23.025Z,97251.34
2023-06-29T23:47:50.638Z,97262.41
2023-06-29T23:50:19.850Z,97256.28
2023-06-29T23:52:46.971Z,97262.41
2023-06-29T23:55:14.150Z,97261.06
2023-06-29T23:57:42.177Z,97264.34
